Time;durP1;ratioP1;P1;durP2;ratioP2;P2;SDS_P1;SDS_P2;PMS_P1;PMS_P2;Temp;Humidity;BMP_temperature;BMP_pressure;BME280_temperature;BME280_humidity;BME280_pressure;Samples;Min_cycle;Max_cycle;Signal;HPM_P1;HPM_P2
2021/04/20 00:00:22;;;;;;;;;40.25;33.25;;;;;;;;5026040;28;11661;-83
2021/04/20 00:02:49;;;;;;;;;41.75;37.75;;;;;;;;5027904;28;11635;-83
2021/04/20 00:05:17;;;;;;;;;41.00;38.50;;;;;;;;5026988;28;11633;-82
2021/04/20 00:07:48;;;;;;;;;41.50;39.50;;;;;;;;5035888;28;11579;-82
2021/04/20 00:10:17;;;;;;;;;43.50;33.50;;;;;;;;5013710;28;12408;-83
2021/04/20 00:12:44;;;;;;;;;58.00;44.50;;;;;;;;5029608;28;11759;-83
2021/04/20 00:15:14;;;;;;;;;44.00;40.25;;;;;;;;5024873;28;11640;-82
2021/04/20 00:17:41;;;;;;;;;45.00;35.75;;;;;;;;5023852;28;11713;-83
2021/04/20 00:20:12;;;;;;;;;43.50;36.00;;;;;;;;5024791;28;11757;-83
2021/04/20 00:22:39;;;;;;;;;45.75;39.75;;;;;;;;5024157;28;11622;-82
2021/04/20 00:25:09;;;;;;;;;42.50;38.25;;;;;;;;5015803;28;11641;-82
2021/04/20 00:27:36;;;;;;;;;50.50;42.25;;;;;;;;5021229;28;11630;-82
2021/04/20 00:30:06;;;;;;;;;48.75;41.25;;;;;;;;5023568;28;11650;-82
2021/04/20 00:32:32;;;;;;;;;36.25;34.50;;;;;;;;5024352;28;11726;-83
2021/04/20 00:35:01;;;;;;;;;46.00;39.25;;;;;;;;5023738;28;12502;-83
2021/04/20 00:37:28;;;;;;;;;50.75;43.25;;;;;;;;5026809;28;11673;-83
2021/04/20 00:39:55;;;;;;;;;52.50;43.25;;;;;;;;5021531;28;11755;-83
2021/04/20 00:42:24;;;;;;;;;38.00;34.75;;;;;;;;5024190;28;12492;-83
2021/04/20 00:44:51;;;;;;;;;41.00;38.50;;;;;;;;5025047;28;11607;-83
2021/04/20 00:47:19;;;;;;;;;47.75;41.00;;;;;;;;5023502;28;11729;-83
2021/04/20 00:49:46;;;;;;;;;48.00;42.75;;;;;;;;5012790;28;11712;-83
2021/04/20 00:52:13;;;;;;;;;43.00;35.25;;;;;;;;5025025;28;12606;-83
2021/04/20 00:54:40;;;;;;;;;34.25;33.00;;;;;;;;5026900;28;12368;-83
2021/04/20 00:57:07;;;;;;;;;52.50;39.25;;;;;;;;5024781;28;11664;-83
2021/04/20 00:59:36;;;;;;;;;49.75;44.00;;;;;;;;5028543;28;11614;-82
2021/04/20 01:02:03;;;;;;;;;48.00;36.75;;;;;;;;5017998;28;12396;-83
2021/04/20 01:04:30;;;;;;;;;36.25;31.25;;;;;;;;5021955;28;11745;-81
2021/04/20 01:06:56;;;;;;;;;47.75;41.00;;;;;;;;5020861;28;11746;-82
2021/04/20 01:09:23;;;;;;;;;36.50;36.50;;;;;;;;5015509;28;11620;-82
2021/04/20 01:11:51;;;;;;;;;48.50;43.25;;;;;;;;5018427;28;11714;-82
2021/04/20 01:14:18;;;;;;;;;42.00;36.00;;;;;;;;5022636;28;11610;-82
2021/04/20 01:16:46;;;;;;;;;44.75;40.25;;;;;;;;5021630;28;11631;-82
2021/04/20 01:19:16;;;;;;;;;36.50;36.50;;;;;;;;5022670;28;11601;-82
2021/04/20 01:21:44;;;;;;;;;45.50;33.75;;;;;;;;5015429;28;11620;-81
2021/04/20 01:24:27;;;;;;;;;48.50;41.25;;;;;;;;5022252;28;11649;-82
2021/04/20 01:26:54;;;;;;;;;41.25;39.00;;;;;;;;5021729;28;11664;-81
2021/04/20 01:29:22;;;;;;;;;47.25;40.75;;;;;;;;5029628;28;11432;-82
2021/04/20 01:31:49;;;;;;;;;54.25;38.25;;;;;;;;5027802;28;11587;-82
2021/04/20 01:34:16;;;;;;;;;51.50;43.25;;;;;;;;5023489;28;11678;-82
2021/04/20 01:36:43;;;;;;;;;54.50;44.00;;;;;;;;5023540;28;11592;-81
2021/04/20 01:39:12;;;;;;;;;48.00;40.75;;;;;;;;5021589;28;11683;-82
2021/04/20 01:41:40;;;;;;;;;53.75;45.25;;;;;;;;5023003;28;11613;-82
2021/04/20 01:44:08;;;;;;;;;56.00;44.75;;;;;;;;5022677;28;11748;-82
2021/04/20 01:46:35;;;;;;;;;57.33;45.33;;;;;;;;5030771;28;11769;-81
2021/04/20 01:49:03;;;;;;;;;52.33;47.00;;;;;;;;5021980;28;11618;-81
2021/04/20 01:51:29;;;;;;;;;46.00;42.50;;;;;;;;5023583;28;11661;-81
2021/04/20 01:53:57;;;;;;;;;50.25;44.25;;;;;;;;5017239;28;11605;-81
2021/04/20 01:56:24;;;;;;;;;62.33;47.33;;;;;;;;5024666;28;11645;-80
2021/04/20 01:58:52;;;;;;;;;53.25;46.25;;;;;;;;5025347;28;11703;-81
2021/04/20 02:01:21;;;;;;;;;41.25;40.25;;;;;;;;5024228;28;11578;-80
2021/04/20 02:03:49;;;;;;;;;49.25;41.50;;;;;;;;5019806;28;11704;-82
2021/04/20 02:06:19;;;;;;;;;52.50;44.00;;;;;;;;5024799;28;11632;-80
2021/04/20 02:08:47;;;;;;;;;44.00;41.00;;;;;;;;5027102;28;11624;-81
2021/04/20 02:11:17;;;;;;;;;47.00;40.75;;;;;;;;5021979;28;11610;-83
2021/04/20 02:13:44;;;;;;;;;47.75;39.00;;;;;;;;5019712;28;11695;-82
2021/04/20 02:16:13;;;;;;;;;52.00;44.75;;;;;;;;5031742;28;11608;-82
2021/04/20 02:18:42;;;;;;;;;53.50;42.75;;;;;;;;5026982;28;11638;-82
2021/04/20 02:21:10;;;;;;;;;54.25;41.75;;;;;;;;5023772;28;11626;-81
2021/04/20 02:23:37;;;;;;;;;50.00;41.50;;;;;;;;5013245;28;11725;-83
2021/04/20 02:26:06;;;;;;;;;48.75;42.75;;;;;;;;5019813;28;11658;-82
2021/04/20 02:28:34;;;;;;;;;42.25;34.75;;;;;;;;5022938;28;12767;-81
2021/04/20 02:31:02;;;;;;;;;40.00;35.50;;;;;;;;5022952;28;11556;-81
2021/04/20 02:33:30;;;;;;;;;55.50;43.00;;;;;;;;5022112;28;11594;-82
2021/04/20 02:35:58;;;;;;;;;48.50;40.75;;;;;;;;5015110;28;11615;-82
2021/04/20 02:38:27;;;;;;;;;41.75;35.75;;;;;;;;5019664;28;11641;-82
2021/04/20 02:40:56;;;;;;;;;52.75;43.25;;;;;;;;5019856;28;11653;-81
2021/04/20 02:43:23;;;;;;;;;54.25;43.50;;;;;;;;5015769;28;11624;-82
2021/04/20 02:45:53;;;;;;;;;46.50;42.25;;;;;;;;5021604;28;11710;-83
2021/04/20 02:48:20;;;;;;;;;40.25;37.75;;;;;;;;5023380;28;11634;-83
2021/04/20 02:50:49;;;;;;;;;43.75;39.25;;;;;;;;5005341;28;12309;-83
2021/04/20 02:53:17;;;;;;;;;44.25;39.00;;;;;;;;5012945;28;11674;-82
2021/04/20 02:55:44;;;;;;;;;47.75;39.75;;;;;;;;5030188;28;11689;-82
2021/04/20 02:58:16;;;;;;;;;47.25;41.00;;;;;;;;5027825;28;11631;-83
2021/04/20 03:00:45;;;;;;;;;54.00;42.75;;;;;;;;5024567;28;11587;-82
2021/04/20 03:03:15;;;;;;;;;36.00;34.75;;;;;;;;5032348;28;11628;-83
2021/04/20 03:05:43;;;;;;;;;50.25;41.25;;;;;;;;5021248;28;11656;-82
2021/04/20 03:08:15;;;;;;;;;56.75;44.75;;;;;;;;5022756;28;11605;-82
2021/04/20 03:10:43;;;;;;;;;49.75;42.25;;;;;;;;5012120;28;11749;-82
2021/04/20 03:13:10;;;;;;;;;52.50;42.75;;;;;;;;5027307;28;11644;-82
2021/04/20 03:15:37;;;;;;;;;58.50;43.25;;;;;;;;5021938;28;11654;-82
2021/04/20 03:18:05;;;;;;;;;47.00;39.50;;;;;;;;5018789;28;11638;-83
2021/04/20 03:20:34;;;;;;;;;49.25;42.50;;;;;;;;5027171;28;11699;-82
2021/04/20 03:23:02;;;;;;;;;42.50;41.50;;;;;;;;5020988;28;11641;-82
2021/04/20 03:25:32;;;;;;;;;57.25;46.50;;;;;;;;5027175;28;11603;-82
2021/04/20 03:28:00;;;;;;;;;42.75;39.75;;;;;;;;5020182;28;11636;-82
2021/04/20 03:30:29;;;;;;;;;45.25;40.00;;;;;;;;5019217;28;11568;-82
2021/04/20 03:33:14;;;;;;;;;54.67;46.00;;;;;;;;5022093;28;11626;-82
2021/04/20 03:35:49;;;;;;;;;49.75;43.50;;;;;;;;5016946;28;11623;-82
2021/04/20 03:38:22;;;;;;;;;51.33;44.00;;;;;;;;5025356;28;11766;-83
2021/04/20 03:40:53;;;;;;;;;49.50;41.25;;;;;;;;5012580;28;11636;-82
2021/04/20 03:43:20;;;;;;;;;48.33;42.00;;;;;;;;5020595;28;12583;-82
2021/04/20 03:45:51;;;;;;;;;55.33;45.00;;;;;;;;5023470;28;11731;-82
2021/04/20 03:48:21;;;;;;;;;53.67;44.33;;;;;;;;5029249;28;11620;-82
2021/04/20 03:50:56;;;;;;;;;52.00;44.00;;;;;;;;5024466;28;11624;-82
2021/04/20 03:53:23;;;;;;;;;61.33;42.67;;;;;;;;5020884;28;11616;-82
2021/04/20 03:55:52;;;;;;;;;52.67;42.00;;;;;;;;5022639;28;11703;-82
2021/04/20 03:58:22;;;;;;;;;56.67;40.67;;;;;;;;5022151;28;11650;-81
2021/04/20 04:00:52;;;;;;;;;44.33;41.00;;;;;;;;5028386;28;11509;-82
2021/04/20 04:03:21;;;;;;;;;52.33;42.33;;;;;;;;5023882;28;11618;-81
2021/04/20 04:05:49;;;;;;;;;40.33;38.00;;;;;;;;5026049;28;11622;-82
2021/04/20 04:08:21;;;;;;;;;47.00;41.67;;;;;;;;5025624;28;11596;-82
2021/04/20 04:10:54;;;;;;;;;41.33;39.00;;;;;;;;5029479;28;8894;-82
2021/04/20 04:13:23;;;;;;;;;33.67;33.67;;;;;;;;5028990;28;12421;-82
2021/04/20 04:15:52;;;;;;;;;51.00;44.33;;;;;;;;5037985;28;8904;-85
2021/04/20 04:18:19;;;;;;;;;52.00;42.67;;;;;;;;5028181;28;8856;-81
2021/04/20 04:20:48;;;;;;;;;53.33;45.00;;;;;;;;5024440;28;8880;-82
2021/04/20 04:23:19;;;;;;;;;43.67;40.67;;;;;;;;5017732;28;11624;-82
2021/04/20 04:25:50;;;;;;;;;49.33;42.00;;;;;;;;5020530;28;11724;-83
2021/04/20 04:28:18;;;;;;;;;56.00;46.67;;;;;;;;5025789;28;8820;-84
2021/04/20 04:30:46;;;;;;;;;44.33;42.00;;;;;;;;5022932;28;8813;-80
2021/04/20 04:33:13;;;;;;;;;42.67;41.67;;;;;;;;5022389;28;8891;-83
2021/04/20 04:35:42;;;;;;;;;49.33;46.67;;;;;;;;5024420;28;8848;-82
2021/04/20 04:38:10;;;;;;;;;53.67;45.33;;;;;;;;5022418;28;8855;-81
2021/04/20 04:40:38;;;;;;;;;43.33;40.00;;;;;;;;5024126;28;8926;-82
2021/04/20 04:43:05;;;;;;;;;54.00;44.67;;;;;;;;5022990;28;9005;-82
2021/04/20 04:45:34;;;;;;;;;49.33;45.00;;;;;;;;5022821;28;8878;-81
2021/04/20 04:48:04;;;;;;;;;52.33;45.33;;;;;;;;5013662;28;8891;-82
2021/04/20 04:50:31;;;;;;;;;52.00;42.67;;;;;;;;5023705;28;9006;-81
2021/04/20 04:52:59;;;;;;;;;53.67;46.33;;;;;;;;5024332;28;8906;-83
2021/04/20 04:55:27;;;;;;;;;55.67;47.33;;;;;;;;5008070;28;8897;-82
2021/04/20 04:57:54;;;;;;;;;51.67;43.33;;;;;;;;5020062;28;8994;-83
2021/04/20 05:00:22;;;;;;;;;39.00;36.33;;;;;;;;5023203;28;8946;-83
2021/04/20 05:02:50;;;;;;;;;59.67;48.67;;;;;;;;5024878;28;8894;-82
2021/04/20 05:05:19;;;;;;;;;45.33;42.00;;;;;;;;5023575;28;8883;-82
2021/04/20 05:07:46;;;;;;;;;54.67;45.00;;;;;;;;5024346;28;8884;-82
2021/04/20 05:10:14;;;;;;;;;50.00;43.33;;;;;;;;5020686;28;8860;-78
2021/04/20 05:12:41;;;;;;;;;36.33;35.33;;;;;;;;5011711;28;8867;-83
2021/04/20 05:15:12;;;;;;;;;51.67;45.00;;;;;;;;5020824;28;8903;-81
2021/04/20 05:17:42;;;;;;;;;46.00;44.67;;;;;;;;5026607;28;9944;-82
2021/04/20 05:20:12;;;;;;;;;51.67;44.00;;;;;;;;5023112;28;8840;-84
2021/04/20 05:22:40;;;;;;;;;45.67;43.00;;;;;;;;5023599;28;8886;-81
2021/04/20 05:25:08;;;;;;;;;48.00;45.00;;;;;;;;5022133;28;8884;-84
2021/04/20 05:27:35;;;;;;;;;44.67;41.00;;;;;;;;5026767;28;8863;-80
2021/04/20 05:30:02;;;;;;;;;47.67;38.33;;;;;;;;5027072;28;8914;-83
2021/04/20 05:32:29;;;;;;;;;43.33;39.00;;;;;;;;5021772;28;8863;-82
2021/04/20 05:35:00;;;;;;;;;52.00;42.33;;;;;;;;5022222;28;8872;-83
2021/04/20 05:37:33;;;;;;;;;37.00;33.00;;;;;;;;5022158;28;8906;-85
2021/04/20 05:40:08;;;;;;;;;49.67;40.00;;;;;;;;5014327;28;11733;-79
2021/04/20 05:42:36;;;;;;;;;36.33;32.67;;;;;;;;5024266;28;11600;-84
2021/04/20 05:45:04;;;;;;;;;48.00;43.33;;;;;;;;5015479;28;11606;-81
2021/04/20 05:47:32;;;;;;;;;37.67;37.00;;;;;;;;5010935;28;8882;-80
2021/04/20 05:50:00;;;;;;;;;42.00;39.67;;;;;;;;5020484;28;12394;-81
2021/04/20 05:52:28;;;;;;;;;48.33;43.33;;;;;;;;5021926;28;11743;-80
2021/04/20 05:54:57;;;;;;;;;37.67;36.00;;;;;;;;5012425;28;11628;-81
2021/04/20 05:57:24;;;;;;;;;37.00;37.00;;;;;;;;5021415;28;11632;-84
2021/04/20 05:59:54;;;;;;;;;46.33;41.00;;;;;;;;5021872;28;11632;-81
2021/04/20 06:02:21;;;;;;;;;40.67;37.67;;;;;;;;5020831;28;11572;-82
2021/04/20 06:04:53;;;;;;;;;58.67;45.33;;;;;;;;5017614;28;11753;-83
2021/04/20 06:07:20;;;;;;;;;48.67;40.00;;;;;;;;5021870;28;11639;-79
2021/04/20 06:09:48;;;;;;;;;54.00;43.67;;;;;;;;5017843;28;11620;-81
2021/04/20 06:12:16;;;;;;;;;48.67;44.00;;;;;;;;5020431;28;11612;-83
2021/04/20 06:14:43;;;;;;;;;51.00;43.00;;;;;;;;5018486;28;11631;-80
2021/04/20 06:17:13;;;;;;;;;53.67;43.33;;;;;;;;5020880;28;11667;-82
2021/04/20 06:19:41;;;;;;;;;55.67;46.67;;;;;;;;5020413;28;12181;-83
2021/04/20 06:22:11;;;;;;;;;26.67;20.67;;;;;;;;5020128;28;11730;-83
2021/04/20 06:24:38;;;;;;;;;54.33;47.33;;;;;;;;5020182;28;11568;-72
2021/04/20 06:27:06;;;;;;;;;61.00;48.67;;;;;;;;5015613;28;11649;-73
2021/04/20 06:29:33;;;;;;;;;64.67;51.33;;;;;;;;5021432;28;11714;-72
2021/04/20 06:32:00;;;;;;;;;63.00;53.67;;;;;;;;5020294;28;11565;-71
2021/04/20 06:34:29;;;;;;;;;60.33;52.33;;;;;;;;5022339;28;11663;-72
2021/04/20 06:36:56;;;;;;;;;73.67;58.67;;;;;;;;5019142;28;11833;-72
2021/04/20 06:39:23;;;;;;;;;66.67;54.00;;;;;;;;5016474;28;8922;-69
2021/04/20 06:41:51;;;;;;;;;65.33;53.67;;;;;;;;5019517;28;11581;-73
2021/04/20 06:44:23;;;;;;;;;75.33;58.33;;;;;;;;5018538;28;11685;-73
2021/04/20 06:46:54;;;;;;;;;76.67;61.33;;;;;;;;5020282;28;11612;-72
2021/04/20 06:49:25;;;;;;;;;73.00;58.33;;;;;;;;5017767;28;8880;-72
2021/04/20 06:51:58;;;;;;;;;74.67;59.67;;;;;;;;5021721;28;12596;-73
2021/04/20 06:54:28;;;;;;;;;69.67;57.67;;;;;;;;5019277;28;11637;-72
2021/04/20 06:57:01;;;;;;;;;81.33;61.67;;;;;;;;5019703;28;8897;-71
2021/04/20 06:59:35;;;;;;;;;77.67;62.67;;;;;;;;5021712;28;11652;-73
2021/04/20 07:02:10;;;;;;;;;76.00;58.50;;;;;;;;5017164;28;11746;-71
2021/04/20 07:04:43;;;;;;;;;64.50;53.25;;;;;;;;5017563;28;11634;-73
2021/04/20 07:07:39;;;;;;;;;73.25;59.00;;;;;;;;5019393;28;11636;-72
2021/04/20 07:10:11;;;;;;;;;66.00;55.00;;;;;;;;5016424;28;11671;-70
2021/04/20 07:12:40;;;;;;;;;77.75;61.50;;;;;;;;5019538;28;11648;-73
2021/04/20 07:15:09;;;;;;;;;75.00;59.25;;;;;;;;5016008;28;11627;-73
2021/04/20 07:17:58;;;;;;;;;69.50;58.00;;;;;;;;5020823;28;11649;-73
2021/04/20 07:20:35;;;;;;;;;82.00;65.00;;;;;;;;5021763;28;11625;-72
2021/04/20 07:23:45;;;;;;;;;76.75;60.00;;;;;;;;5022640;28;8989;-71
2021/04/20 07:26:33;;;;;;;;;75.25;59.00;;;;;;;;4963789;28;11615;-72
2021/04/20 07:29:11;;;;;;;;;77.75;59.00;;;;;;;;4980666;28;11617;-73
2021/04/20 07:31:48;;;;;;;;;75.25;60.25;;;;;;;;5009833;28;12574;-72
2021/04/20 07:34:22;;;;;;;;;77.50;59.50;;;;;;;;5023227;28;11610;-69
2021/04/20 07:37:08;;;;;;;;;82.50;63.75;;;;;;;;5019698;28;11607;-74
2021/04/20 07:39:41;;;;;;;;;77.25;63.25;;;;;;;;5021713;28;11660;-72
2021/04/20 07:42:19;;;;;;;;;80.75;64.25;;;;;;;;5023437;28;11611;-68
2021/04/20 07:44:54;;;;;;;;;89.25;74.25;;;;;;;;5012652;28;11650;-68
2021/04/20 07:47:25;;;;;;;;;86.25;71.25;;;;;;;;5014644;28;11643;-71
2021/04/20 07:50:00;;;;;;;;;90.25;77.75;;;;;;;;5022928;28;11700;-71
2021/04/20 07:52:31;;;;;;;;;93.00;79.50;;;;;;;;5025417;28;11782;-70
2021/04/20 07:55:05;;;;;;;;;92.25;79.00;;;;;;;;5019548;28;11696;-71
2021/04/20 07:57:37;;;;;;;;;86.00;69.00;;;;;;;;5024684;28;11655;-72
2021/04/20 08:00:08;;;;;;;;;84.00;68.50;;;;;;;;5023906;28;11752;-72
2021/04/20 08:02:45;;;;;;;;;91.50;78.50;;;;;;;;5017345;28;11613;-71
2021/04/20 08:05:19;;;;;;;;;87.25;70.00;;;;;;;;5022787;28;11644;-71
2021/04/20 08:07:52;;;;;;;;;87.50;75.50;;;;;;;;5022958;28;11652;-70
2021/04/20 08:10:20;;;;;;;;;88.25;72.75;;;;;;;;5017113;28;11639;-69
2021/04/20 08:12:51;;;;;;;;;82.25;67.00;;;;;;;;5023843;28;11757;-69
2021/04/20 08:15:34;;;;;;;;;81.00;66.00;;;;;;;;5022555;28;11643;-72
2021/04/20 08:18:08;;;;;;;;;80.50;64.75;;;;;;;;5021549;28;11654;-73
2021/04/20 08:20:37;;;;;;;;;77.50;61.25;;;;;;;;5022892;28;11671;-70
2021/04/20 08:23:06;;;;;;;;;78.25;61.75;;;;;;;;5019684;28;11653;-72
2021/04/20 08:25:36;;;;;;;;;76.50;59.75;;;;;;;;5019248;28;11633;-70
2021/04/20 08:28:18;;;;;;;;;73.75;59.25;;;;;;;;5022075;28;11656;-73
2021/04/20 08:30:48;;;;;;;;;72.50;59.25;;;;;;;;5022517;28;11653;-73
2021/04/20 08:33:17;;;;;;;;;77.75;61.25;;;;;;;;5018388;28;11621;-72
2021/04/20 08:35:49;;;;;;;;;74.75;59.75;;;;;;;;5020167;28;11601;-73
2021/04/20 08:38:33;;;;;;;;;78.50;61.25;;;;;;;;5019917;28;11604;-72
2021/04/20 08:41:06;;;;;;;;;76.25;60.00;;;;;;;;5017127;28;11630;-71
2021/04/20 08:43:45;;;;;;;;;72.00;58.75;;;;;;;;5022036;28;11599;-73
2021/04/20 08:46:21;;;;;;;;;69.75;56.00;;;;;;;;5019198;28;11574;-71
2021/04/20 08:48:54;;;;;;;;;65.50;53.00;;;;;;;;5019583;28;11667;-69
2021/04/20 08:51:29;;;;;;;;;64.25;53.00;;;;;;;;5021435;28;11588;-71
2021/04/20 08:54:04;;;;;;;;;66.50;53.00;;;;;;;;5020266;28;11554;-72
2021/04/20 08:56:34;;;;;;;;;61.25;49.25;;;;;;;;5021803;28;11197;-71
2021/04/20 08:59:29;;;;;;;;;61.25;50.50;;;;;;;;5021476;28;10946;-72
2021/04/20 09:02:15;;;;;;;;;59.25;48.75;;;;;;;;5021331;28;11726;-72
2021/04/20 09:04:57;;;;;;;;;63.00;50.75;;;;;;;;5022341;28;10951;-72
2021/04/20 09:07:34;;;;;;;;;60.00;50.75;;;;;;;;5022448;28;11573;-71
2021/04/20 09:10:07;;;;;;;;;52.75;43.25;;;;;;;;5021932;28;10857;-72
2021/04/20 09:12:36;;;;;;;;;53.50;43.25;;;;;;;;5014121;28;10637;-71
2021/04/20 09:15:06;;;;;;;;;55.00;45.75;;;;;;;;5022506;28;10439;-72
2021/04/20 09:17:39;;;;;;;;;55.00;45.50;;;;;;;;5017563;28;10456;-72
2021/04/20 09:20:12;;;;;;;;;59.25;48.25;;;;;;;;5016726;28;11137;-71
2021/04/20 09:22:51;;;;;;;;;54.00;44.00;;;;;;;;5021480;28;10199;-72
2021/04/20 09:25:21;;;;;;;;;53.00;45.00;;;;;;;;5019110;28;9983;-71
2021/04/20 09:27:57;;;;;;;;;56.00;45.00;;;;;;;;5022364;28;10099;-72
2021/04/20 09:30:27;;;;;;;;;56.75;46.75;;;;;;;;5018551;28;9898;-72
2021/04/20 09:32:59;;;;;;;;;53.75;44.00;;;;;;;;5011892;28;10024;-72
2021/04/20 09:35:27;;;;;;;;;51.25;42.00;;;;;;;;5019437;28;9787;-70
2021/04/20 09:37:55;;;;;;;;;48.67;39.67;;;;;;;;5020346;28;9575;-73
2021/04/20 09:40:24;;;;;;;;;39.33;35.33;;;;;;;;5021041;28;9551;-71
2021/04/20 09:42:55;;;;;;;;;30.25;30.00;;;;;;;;5019819;28;9342;-69
2021/04/20 09:45:26;;;;;;;;;35.67;34.33;;;;;;;;5020114;28;8868;-71
2021/04/20 09:48:08;;;;;;;;;35.33;34.33;;;;;;;;5015528;28;9025;-74
2021/04/20 09:50:44;;;;;;;;;33.25;31.75;;;;;;;;5019745;28;9256;-72
2021/04/20 09:53:34;;;;;;;;;30.75;30.75;;;;;;;;5016145;28;8861;-72
2021/04/20 09:56:18;;;;;;;;;22.50;22.50;;;;;;;;5018360;28;8856;-73
2021/04/20 09:58:45;;;;;;;;;31.00;31.00;;;;;;;;5021682;28;8887;-70
2021/04/20 10:01:36;;;;;;;;;29.00;27.50;;;;;;;;5021422;28;8889;-73
2021/04/20 10:04:08;;;;;;;;;19.00;17.50;;;;;;;;5009710;28;9067;-74
2021/04/20 10:07:10;;;;;;;;;20.00;18.50;;;;;;;;5020431;28;8875;-74
2021/04/20 10:09:45;;;;;;;;;23.75;22.00;;;;;;;;5021283;28;9029;-72
2021/04/20 10:12:29;;;;;;;;;27.50;27.50;;;;;;;;5019679;28;8953;-73
2021/04/20 10:15:09;;;;;;;;;30.25;28.50;;;;;;;;5018005;28;8867;-74
2021/04/20 10:17:42;;;;;;;;;35.00;29.50;;;;;;;;5016851;28;8875;-74
2021/04/20 10:20:19;;;;;;;;;38.00;29.25;;;;;;;;5020181;28;8895;-72
2021/04/20 10:22:53;;;;;;;;;33.00;31.50;;;;;;;;5020498;28;8907;-74
2021/04/20 10:25:35;;;;;;;;;40.00;34.25;;;;;;;;5012963;28;8894;-73
2021/04/20 10:28:11;;;;;;;;;39.25;33.75;;;;;;;;5023124;28;8882;-75
2021/04/20 10:30:43;;;;;;;;;33.25;31.25;;;;;;;;5018913;28;8843;-75
2021/04/20 10:33:12;;;;;;;;;29.75;29.75;;;;;;;;5018521;28;8903;-76
2021/04/20 10:35:40;;;;;;;;;35.00;31.25;;;;;;;;5017923;28;8871;-75
2021/04/20 10:38:12;;;;;;;;;38.75;34.00;;;;;;;;5019920;28;9683;-76
2021/04/20 10:40:42;;;;;;;;;38.75;34.50;;;;;;;;5019294;28;8971;-77
2021/04/20 10:43:11;;;;;;;;;34.75;32.75;;;;;;;;5019568;28;8937;-75
2021/04/20 10:45:40;;;;;;;;;34.75;33.25;;;;;;;;5020758;28;9697;-73
2021/04/20 10:48:09;;;;;;;;;35.50;34.25;;;;;;;;5020881;28;8894;-74
2021/04/20 10:50:38;;;;;;;;;35.25;31.75;;;;;;;;5020009;28;8859;-76
2021/04/20 10:53:10;;;;;;;;;36.75;34.25;;;;;;;;5021330;28;8980;-74
2021/04/20 10:55:41;;;;;;;;;36.75;34.00;;;;;;;;5024524;28;8904;-74
2021/04/20 10:58:10;;;;;;;;;31.50;30.00;;;;;;;;5024491;28;8863;-77
2021/04/20 11:00:38;;;;;;;;;30.75;30.50;;;;;;;;5020307;28;9627;-73
2021/04/20 11:03:06;;;;;;;;;36.75;32.25;;;;;;;;5025860;28;8886;-74
2021/04/20 11:05:34;;;;;;;;;39.75;33.00;;;;;;;;5023490;28;8918;-74
2021/04/20 11:08:01;;;;;;;;;36.25;33.75;;;;;;;;5019454;28;8868;-69
2021/04/20 11:10:36;;;;;;;;;38.00;33.25;;;;;;;;5024850;28;8884;-67
2021/04/20 11:13:06;;;;;;;;;33.50;30.75;;;;;;;;5021884;28;8984;-72
2021/04/20 11:15:34;;;;;;;;;35.50;33.25;;;;;;;;5023692;28;8875;-69
2021/04/20 11:18:09;;;;;;;;;33.25;30.75;;;;;;;;5022380;28;8970;-74
2021/04/20 11:20:39;;;;;;;;;33.00;30.75;;;;;;;;5025300;28;8864;-72
2021/04/20 11:23:31;;;;;;;;;30.75;30.50;;;;;;;;5016557;28;8941;-73
2021/04/20 11:26:05;;;;;;;;;34.25;30.25;;;;;;;;5021073;28;8876;-73
2021/04/20 11:28:38;;;;;;;;;40.25;33.75;;;;;;;;5012462;28;8845;-68
2021/04/20 11:31:07;;;;;;;;;28.00;28.00;;;;;;;;5011863;28;8824;-72
2021/04/20 11:33:38;;;;;;;;;38.50;32.50;;;;;;;;5011152;28;8882;-73
2021/04/20 11:36:09;;;;;;;;;32.00;30.25;;;;;;;;5022383;28;8844;-76
2021/04/20 11:38:42;;;;;;;;;35.75;31.50;;;;;;;;5023894;28;8884;-74
2021/04/20 11:41:12;;;;;;;;;33.00;31.25;;;;;;;;5023669;28;8930;-76
2021/04/20 11:43:41;;;;;;;;;30.25;29.75;;;;;;;;5024275;28;8868;-72
2021/04/20 11:46:09;;;;;;;;;33.75;32.25;;;;;;;;5021962;28;8888;-72
2021/04/20 11:48:36;;;;;;;;;29.50;28.75;;;;;;;;5019789;28;8989;-73
2021/04/20 11:51:05;;;;;;;;;29.75;28.75;;;;;;;;5021368;28;8871;-73
2021/04/20 11:53:39;;;;;;;;;33.75;31.50;;;;;;;;5008326;28;8887;-71
2021/04/20 11:56:07;;;;;;;;;29.50;28.00;;;;;;;;5013523;28;8888;-71
2021/04/20 11:58:36;;;;;;;;;33.50;31.25;;;;;;;;5021639;28;8941;-73
2021/04/20 12:01:12;;;;;;;;;23.75;23.75;;;;;;;;5016824;28;8979;-72
2021/04/20 12:03:50;;;;;;;;;29.50;27.75;;;;;;;;5019879;28;8860;-72
2021/04/20 12:06:17;;;;;;;;;31.25;27.75;;;;;;;;5021429;28;8883;-71
2021/04/20 12:08:45;;;;;;;;;31.50;29.50;;;;;;;;5012189;28;8856;-73
2021/04/20 12:11:13;;;;;;;;;31.25;26.50;;;;;;;;5017739;28;8968;-68
2021/04/20 12:13:44;;;;;;;;;30.75;25.50;;;;;;;;5020489;28;8872;-68
2021/04/20 12:16:13;;;;;;;;;29.50;28.00;;;;;;;;5019965;28;8896;-72
2021/04/20 12:18:45;;;;;;;;;26.20;24.40;;;;;;;;5024050;28;9073;-74
2021/04/20 12:21:19;;;;;;;;;29.25;28.25;;;;;;;;5021515;28;8878;-73
2021/04/20 12:23:50;;;;;;;;;28.00;26.75;;;;;;;;5014020;28;9002;-68
2021/04/20 12:26:18;;;;;;;;;25.00;23.75;;;;;;;;5018439;28;8998;-73
2021/04/20 12:28:49;;;;;;;;;29.75;28.25;;;;;;;;5011821;28;8996;-73
2021/04/20 12:31:18;;;;;;;;;31.00;30.25;;;;;;;;5019194;28;8852;-72
2021/04/20 12:33:47;;;;;;;;;27.75;27.75;;;;;;;;5012875;28;8872;-74
2021/04/20 12:36:25;;;;;;;;;28.25;27.50;;;;;;;;5011691;28;8867;-73
2021/04/20 12:38:57;;;;;;;;;28.25;24.50;;;;;;;;5007227;28;8887;-73
2021/04/20 12:41:28;;;;;;;;;33.25;30.00;;;;;;;;5018104;28;8872;-74
2021/04/20 12:43:57;;;;;;;;;29.00;27.75;;;;;;;;5022328;28;8863;-72
2021/04/20 12:46:27;;;;;;;;;27.75;27.75;;;;;;;;5022918;28;8929;-72
2021/04/20 12:48:55;;;;;;;;;27.25;26.75;;;;;;;;4993968;28;8897;-75
2021/04/20 12:51:24;;;;;;;;;30.00;27.25;;;;;;;;5021927;28;8889;-69
2021/04/20 12:53:52;;;;;;;;;31.50;29.75;;;;;;;;5021054;28;8969;-73
2021/04/20 12:56:29;;;;;;;;;24.00;24.00;;;;;;;;5023370;28;8875;-73
2021/04/20 12:58:58;;;;;;;;;26.75;26.75;;;;;;;;5019684;28;8888;-74
2021/04/20 13:01:27;;;;;;;;;25.00;24.20;;;;;;;;5022699;28;8967;-73
2021/04/20 13:03:54;;;;;;;;;27.60;27.00;;;;;;;;5007145;28;8868;-74
2021/04/20 13:06:22;;;;;;;;;26.80;26.20;;;;;;;;5013335;28;8884;-75
2021/04/20 13:08:51;;;;;;;;;30.50;28.25;;;;;;;;5012947;28;8890;-72
2021/04/20 13:11:26;;;;;;;;;31.00;28.50;;;;;;;;5008462;28;8924;-74
2021/04/20 13:13:53;;;;;;;;;25.75;25.00;;;;;;;;5018961;28;8979;-72
2021/04/20 13:16:26;;;;;;;;;27.00;25.00;;;;;;;;5015490;28;9630;-72
2021/04/20 13:18:57;;;;;;;;;22.75;22.25;;;;;;;;5015461;28;8925;-73
2021/04/20 13:21:26;;;;;;;;;24.00;24.00;;;;;;;;5015301;28;8860;-74
2021/04/20 13:23:54;;;;;;;;;26.50;24.75;;;;;;;;5017573;28;8888;-72
2021/04/20 13:26:24;;;;;;;;;17.50;17.00;;;;;;;;5019373;28;8886;-69
2021/04/20 13:28:53;;;;;;;;;20.25;19.50;;;;;;;;5018215;28;8876;-74
2021/04/20 13:31:23;;;;;;;;;23.75;21.25;;;;;;;;5021216;28;8849;-71
2021/04/20 13:33:55;;;;;;;;;24.25;23.25;;;;;;;;5019987;28;8868;-72
2021/04/20 13:36:25;;;;;;;;;19.25;17.75;;;;;;;;5021629;28;9632;-72
2021/04/20 13:38:55;;;;;;;;;21.75;21.75;;;;;;;;5013468;28;8866;-72
2021/04/20 13:41:23;;;;;;;;;24.75;23.50;;;;;;;;5021020;28;8884;-72
2021/04/20 13:43:51;;;;;;;;;20.50;19.75;;;;;;;;5022868;28;8884;-70
2021/04/20 13:46:18;;;;;;;;;19.25;19.25;;;;;;;;5016431;28;8879;-73
2021/04/20 13:48:45;;;;;;;;;20.75;20.25;;;;;;;;5017461;28;8915;-71
2021/04/20 13:51:13;;;;;;;;;20.50;18.75;;;;;;;;5019711;28;8887;-73
2021/04/20 13:53:45;;;;;;;;;21.25;18.25;;;;;;;;5011046;28;9019;-72
2021/04/20 13:56:17;;;;;;;;;19.00;19.00;;;;;;;;5021929;28;8860;-74
2021/04/20 13:58:51;;;;;;;;;19.75;19.75;;;;;;;;5021819;28;8918;-71
2021/04/20 14:01:26;;;;;;;;;23.25;21.50;;;;;;;;5017316;28;8849;-73
2021/04/20 14:03:59;;;;;;;;;21.00;21.00;;;;;;;;5008219;28;8995;-70
2021/04/20 14:06:30;;;;;;;;;20.75;18.75;;;;;;;;5021564;28;9495;-73
2021/04/20 14:09:01;;;;;;;;;26.25;23.25;;;;;;;;5014309;28;8870;-73
2021/04/20 14:11:40;;;;;;;;;20.50;20.50;;;;;;;;5017493;28;8907;-73
2021/04/20 14:14:09;;;;;;;;;22.75;21.75;;;;;;;;5019030;28;8859;-72
2021/04/20 14:16:40;;;;;;;;;21.00;20.00;;;;;;;;5017999;28;8899;-72
2021/04/20 14:19:08;;;;;;;;;15.75;15.75;;;;;;;;5020263;28;9619;-73
2021/04/20 14:21:37;;;;;;;;;14.25;14.00;;;;;;;;5010529;28;8884;-72
2021/04/20 14:24:05;;;;;;;;;23.25;22.25;;;;;;;;5014768;28;8860;-72
2021/04/20 14:26:32;;;;;;;;;11.25;11.25;;;;;;;;5020898;28;8879;-70
2021/04/20 14:29:08;;;;;;;;;23.25;23.25;;;;;;;;5014458;28;8871;-71
2021/04/20 14:31:37;;;;;;;;;19.00;19.00;;;;;;;;5010188;28;8898;-71
2021/04/20 14:34:05;;;;;;;;;16.25;16.25;;;;;;;;5010144;28;8867;-71
2021/04/20 14:36:37;;;;;;;;;18.00;18.00;;;;;;;;5015778;28;8864;-67
2021/04/20 14:39:09;;;;;;;;;21.00;20.00;;;;;;;;5016460;28;8876;-73
2021/04/20 14:41:37;;;;;;;;;20.00;18.75;;;;;;;;5010767;28;9045;-72
2021/04/20 14:44:11;;;;;;;;;17.50;16.25;;;;;;;;5016536;28;8886;-74